createdAt,value
2018-04-19T00:00:05.573Z,99.90
2018-04-19T00:02:36.855Z,99.90
2018-04-19T00:05:05.689Z,99.90
2018-04-19T00:07:34.537Z,99.90
2018-04-19T00:10:03.423Z,99.90
2018-04-19T00:12:32.272Z,99.90
2018-04-19T00:15:01.119Z,99.90
2018-04-19T00:17:29.989Z,99.90
2018-04-19T00:19:58.852Z,99.90
2018-04-19T00:22:27.684Z,99.90
2018-04-19T00:24:57.306Z,99.90
2018-04-19T00:27:26.158Z,99.90
2018-04-19T00:29:55.041Z,99.90
2018-04-19T00:32:23.882Z,99.90
2018-04-19T00:34:52.737Z,99.90
2018-04-19T00:37:22.336Z,99.90
2018-04-19T00:39:51.952Z,99.90
2018-04-19T00:42:21.570Z,99.90
2018-04-19T00:44:51.176Z,99.90
2018-04-19T00:47:20.788Z,99.90
2018-04-19T00:49:50.436Z,99.90
2018-04-19T00:52:19.290Z,99.90
2018-04-19T00:54:48.913Z,99.90
2018-04-19T00:57:17.749Z,99.90
2018-04-19T00:59:46.596Z,99.90
2018-04-19T01:02:15.440Z,99.90
2018-04-19T01:04:44.284Z,99.90
2018-04-19T01:07:13.134Z,99.90
2018-04-19T01:09:42.737Z,99.90
2018-04-19T01:12:12.463Z,99.90
2018-04-19T01:14:41.296Z,99.90
2018-04-19T01:17:10.156Z,99.90
2018-04-19T01:19:38.996Z,99.90
2018-04-19T01:22:09.145Z,99.90
2018-04-19T01:24:38.092Z,99.90
2018-04-19T01:27:06.949Z,99.90
2018-04-19T01:29:36.571Z,99.90
2018-04-19T01:32:05.434Z,99.90
2018-04-19T01:34:34.264Z,99.90
2018-04-19T01:37:03.980Z,99.90
2018-04-19T01:39:32.842Z,99.90
2018-04-19T01:42:01.706Z,99.90
2018-04-19T01:44:31.461Z,99.90
2018-04-19T01:47:00.303Z,99.90
2018-04-19T01:49:29.159Z,99.90
2018-04-19T01:51:57.985Z,99.90
2018-04-19T01:54:26.826Z,99.90
2018-04-19T01:56:55.669Z,99.90
2018-04-19T01:59:24.509Z,99.90
2018-04-19T02:01:53.491Z,99.90
2018-04-19T02:04:23.075Z,99.90
2018-04-19T02:06:52.684Z,99.90
2018-04-19T02:09:21.536Z,99.90
2018-04-19T02:11:50.385Z,99.90
2018-04-19T02:14:19.228Z,99.90
2018-04-19T02:16:48.069Z,99.90
2018-04-19T02:19:16.980Z,99.90
2018-04-19T02:21:46.000Z,99.90
2018-04-19T02:24:14.851Z,99.90
2018-04-19T02:26:43.701Z,99.90
2018-04-19T02:29:12.541Z,99.90
2018-04-19T02:31:42.161Z,99.90
2018-04-19T02:34:11.005Z,99.90
2018-04-19T02:36:40.269Z,99.90
2018-04-19T02:39:09.110Z,99.90
2018-04-19T02:41:37.966Z,99.90
2018-04-19T02:44:06.813Z,99.90
2018-04-19T02:46:36.426Z,99.90
2018-04-19T02:49:05.261Z,99.90
2018-04-19T02:51:34.108Z,99.90
2018-04-19T02:54:02.964Z,99.90
2018-04-19T02:56:32.736Z,99.90
2018-04-19T02:59:01.574Z,99.90
2018-04-19T03:01:33.270Z,99.90
2018-04-19T03:04:02.430Z,99.90
2018-04-19T03:06:32.036Z,99.90
2018-04-19T03:09:01.656Z,99.90
2018-04-19T03:11:31.261Z,99.90
2018-04-19T03:14:00.913Z,99.90
2018-04-19T03:16:29.754Z,99.90
2018-04-19T03:18:59.369Z,99.90
2018-04-19T03:21:28.207Z,99.90
2018-04-19T03:23:57.065Z,99.90
2018-04-19T03:26:26.262Z,99.90
2018-04-19T03:28:55.128Z,99.90
2018-04-19T03:31:24.185Z,99.90
2018-04-19T03:33:53.033Z,99.90
2018-04-19T03:36:21.884Z,99.90
2018-04-19T03:38:51.505Z,99.90
2018-04-19T03:41:21.117Z,99.90
2018-04-19T03:43:50.010Z,99.90
2018-04-19T03:46:18.856Z,99.90
2018-04-19T03:48:47.696Z,99.90
2018-04-19T03:51:16.553Z,99.90
2018-04-19T03:53:46.170Z,99.90
2018-04-19T03:56:15.785Z,99.90
2018-04-19T03:58:44.657Z,99.90
2018-04-19T04:01:14.291Z,99.90
2018-04-19T04:03:43.904Z,99.90
2018-04-19T04:06:12.745Z,99.90
2018-04-19T04:08:41.599Z,99.90
2018-04-19T04:11:10.447Z,99.90
2018-04-19T04:13:40.073Z,99.90
2018-04-19T04:16:08.936Z,99.90
2018-04-19T04:21:54.109Z,99.90
2018-04-19T04:24:22.961Z,99.90
2018-04-19T04:26:51.779Z,99.90
2018-04-19T04:29:20.607Z,99.90
2018-04-19T04:31:50.241Z,99.90
2018-04-19T04:34:19.093Z,99.90
2018-04-19T04:36:47.929Z,99.90
2018-04-19T04:39:16.776Z,99.90
2018-04-19T04:41:46.393Z,99.90
2018-04-19T04:44:16.002Z,99.90
2018-04-19T04:46:45.621Z,99.90
2018-04-19T04:49:14.477Z,99.90
2018-04-19T04:51:43.337Z,99.90
2018-04-19T04:54:12.200Z,99.90
2018-04-19T04:56:41.064Z,99.90
2018-04-19T04:59:10.692Z,99.90
2018-04-19T05:01:39.548Z,99.90
2018-04-19T05:04:09.160Z,99.90
2018-04-19T05:06:38.909Z,99.90
2018-04-19T05:09:07.764Z,99.90
2018-04-19T05:11:37.365Z,99.90
2018-04-19T05:14:06.991Z,99.90
2018-04-19T05:16:35.831Z,99.90
2018-04-19T05:19:04.661Z,99.90
2018-04-19T05:21:34.273Z,99.90
2018-04-19T05:24:03.124Z,99.90
2018-04-19T05:26:32.740Z,99.90
2018-04-19T05:29:02.370Z,99.90
2018-04-19T05:31:31.203Z,99.90
2018-04-19T05:34:00.189Z,99.90
2018-04-19T05:36:29.052Z,99.90
2018-04-19T05:38:57.903Z,99.90
2018-04-19T05:41:26.749Z,99.90
2018-04-19T05:43:55.600Z,99.90
2018-04-19T05:46:24.549Z,99.90
2018-04-19T05:48:53.404Z,99.90
2018-04-19T05:51:22.245Z,99.90
2018-04-19T05:53:51.084Z,99.90
2018-04-19T05:56:19.925Z,99.90
2018-04-19T05:58:48.781Z,99.90
2018-04-19T06:01:17.629Z,99.90
2018-04-19T06:03:47.245Z,99.90
2018-04-19T06:06:16.120Z,99.90
2018-04-19T06:08:52.021Z,99.90
2018-04-19T06:11:20.865Z,99.90
2018-04-19T06:13:50.481Z,99.90
2018-04-19T06:16:19.361Z,99.90
2018-04-19T06:18:48.956Z,99.90
2018-04-19T06:21:18.603Z,99.90
2018-04-19T06:23:47.493Z,99.90
2018-04-19T06:26:16.336Z,99.90
2018-04-19T06:28:45.169Z,99.90
2018-04-19T06:31:14.021Z,99.90
2018-04-19T06:33:42.866Z,99.90
2018-04-19T06:36:11.740Z,99.90
2018-04-19T06:38:40.559Z,99.90
2018-04-19T06:41:09.402Z,99.90
2018-04-19T06:43:39.028Z,99.90
2018-04-19T06:46:07.888Z,99.90
2018-04-19T06:48:37.496Z,99.90
2018-04-19T06:51:07.110Z,99.90
2018-04-19T06:53:36.746Z,99.90
2018-04-19T06:56:05.575Z,99.90
2018-04-19T06:58:34.423Z,99.90
2018-04-19T07:01:03.305Z,99.90
2018-04-19T07:03:32.894Z,99.90
2018-04-19T07:06:02.503Z,99.90
2018-04-19T07:08:31.677Z,99.90
2018-04-19T07:11:00.962Z,99.90
2018-04-19T07:13:29.798Z,99.90
2018-04-19T07:15:59.804Z,99.90
2018-04-19T07:18:29.416Z,99.90
2018-04-19T07:20:59.052Z,99.90
2018-04-19T07:23:27.885Z,99.90
2018-04-19T07:25:56.736Z,99.90
2018-04-19T07:28:25.583Z,99.90
2018-04-19T07:30:54.454Z,99.90
2018-04-19T07:33:23.292Z,99.90
2018-04-19T07:35:53.250Z,99.90
2018-04-19T07:38:22.081Z,99.90
2018-04-19T07:40:50.940Z,99.90
2018-04-19T07:43:19.792Z,99.90
2018-04-19T07:45:49.441Z,99.90
2018-04-19T07:48:18.293Z,99.90
2018-04-19T07:50:47.133Z,99.90
2018-04-19T07:53:15.985Z,99.90
2018-04-19T07:55:45.609Z,99.90
2018-04-19T07:58:14.459Z,99.90
2018-04-19T08:00:43.309Z,99.90
2018-04-19T08:03:12.149Z,99.90
2018-04-19T08:05:41.774Z,99.90
2018-04-19T08:08:10.630Z,99.90
2018-04-19T08:10:39.476Z,99.90
2018-04-19T08:13:08.315Z,99.90
2018-04-19T08:15:37.169Z,99.90
2018-04-19T08:18:05.992Z,99.90
2018-04-19T08:20:34.840Z,99.90
2018-04-19T08:23:03.688Z,99.90
2018-04-19T08:25:33.282Z,99.90
2018-04-19T08:28:02.149Z,99.90
2018-04-19T08:30:31.413Z,99.90
2018-04-19T08:33:00.260Z,99.90
2018-04-19T08:35:29.110Z,99.90
2018-04-19T08:37:57.940Z,99.90
2018-04-19T08:40:26.785Z,99.90
2018-04-19T08:42:56.366Z,99.90
2018-04-19T08:45:25.209Z,99.90
2018-04-19T08:47:54.043Z,99.90
2018-04-19T08:50:22.872Z,99.90
2018-04-19T08:52:51.732Z,99.90
2018-04-19T08:55:22.083Z,99.90
2018-04-19T08:57:50.941Z,99.90
2018-04-19T09:00:19.788Z,99.10
2018-04-19T09:02:48.648Z,99.60
2018-04-19T09:05:18.230Z,99.00
2018-04-19T09:07:47.837Z,98.30
2018-04-19T09:10:16.685Z,98.30
2018-04-19T09:12:45.528Z,98.00
2018-04-19T09:15:15.124Z,98.30
2018-04-19T09:17:44.728Z,98.20
2018-04-19T09:20:15.091Z,96.90
2018-04-19T09:22:43.913Z,96.90
2018-04-19T09:25:12.762Z,97.10
2018-04-19T09:27:42.384Z,95.50
2018-04-19T09:30:11.211Z,95.40
2018-04-19T09:32:40.051Z,94.60
2018-04-19T09:35:08.873Z,91.70
2018-04-19T09:37:38.509Z,79.90
2018-04-19T09:40:07.598Z,79.80
2018-04-19T09:42:36.462Z,76.40
2018-04-19T09:45:05.333Z,73.50
2018-04-19T09:47:34.221Z,68.00
2018-04-19T09:50:03.064Z,64.00
2018-04-19T09:52:31.907Z,57.70
2018-04-19T09:55:01.511Z,56.10
2018-04-19T09:57:30.353Z,56.00
2018-04-19T09:59:59.833Z,54.00
2018-04-19T10:02:29.446Z,52.10
2018-04-19T10:05:02.137Z,52.00
2018-04-19T10:07:31.031Z,50.90
2018-04-19T10:09:59.868Z,50.20
2018-04-19T10:12:28.722Z,49.20
2018-04-19T10:14:57.552Z,49.20
2018-04-19T10:17:27.175Z,46.70
2018-04-19T10:19:56.821Z,46.80
2018-04-19T10:22:25.663Z,46.70
2018-04-19T10:24:55.279Z,44.50
2018-04-19T10:27:24.947Z,43.10
2018-04-19T10:29:54.067Z,43.00
2018-04-19T10:32:22.914Z,43.30
2018-04-19T10:34:51.998Z,42.30
2018-04-19T10:37:20.861Z,41.20
2018-04-19T10:39:50.484Z,41.50
2018-04-19T10:42:19.336Z,41.50
2018-04-19T10:44:49.110Z,41.30
2018-04-19T10:47:18.191Z,40.30
2018-04-19T10:49:47.116Z,40.90
2018-04-19T10:52:15.953Z,40.60
2018-04-19T10:54:45.760Z,40.20
2018-04-19T10:57:15.346Z,39.90
2018-04-19T10:59:44.176Z,39.80
2018-04-19T11:02:13.035Z,40.00
2018-04-19T11:04:41.838Z,39.40
2018-04-19T11:07:11.446Z,39.80
2018-04-19T11:09:41.964Z,40.10
2018-04-19T11:12:11.578Z,37.90
2018-04-19T11:14:41.183Z,38.00
2018-04-19T11:17:10.793Z,36.60
2018-04-19T11:19:40.399Z,36.90
2018-04-19T11:22:10.005Z,36.00
2018-04-19T11:24:39.623Z,36.60
2018-04-19T11:27:09.225Z,35.90
2018-04-19T11:29:38.895Z,36.50
2018-04-19T11:32:08.503Z,35.10
2018-04-19T11:34:38.123Z,35.40
2018-04-19T11:37:07.016Z,35.40
2018-04-19T11:39:35.864Z,35.30
2018-04-19T11:42:05.472Z,33.60
2018-04-19T11:44:35.072Z,33.70
2018-04-19T11:47:05.596Z,32.90
2018-04-19T11:49:34.436Z,32.80
2018-04-19T11:52:03.280Z,32.60
2018-04-19T11:54:32.124Z,33.20
2018-04-19T11:57:00.958Z,33.40
2018-04-19T11:59:30.564Z,32.50
2018-04-19T12:01:59.408Z,32.40
2018-04-19T12:04:28.796Z,31.60
2018-04-19T12:06:57.646Z,31.00
2018-04-19T12:09:26.475Z,31.60
2018-04-19T12:11:55.749Z,31.40
2018-04-19T12:14:24.726Z,30.10
2018-04-19T12:16:53.568Z,30.70
2018-04-19T12:19:22.426Z,31.80
2018-04-19T12:21:52.029Z,35.00
2018-04-19T12:24:21.640Z,37.70
2018-04-19T12:26:51.264Z,38.20
2018-04-19T12:29:20.851Z,38.00
2018-04-19T12:31:50.468Z,40.10
2018-04-19T12:34:20.094Z,39.10
2018-04-19T12:36:49.672Z,41.30
2018-04-19T12:39:19.309Z,41.70
2018-04-19T12:41:48.126Z,41.50
2018-04-19T12:44:16.968Z,41.60
2018-04-19T12:46:45.792Z,42.20
2018-04-19T12:49:14.654Z,41.10
2018-04-19T12:51:43.478Z,41.80
2018-04-19T12:54:12.336Z,42.60
2018-04-19T12:56:41.188Z,42.60
2018-04-19T12:59:10.037Z,42.80
2018-04-19T13:01:38.865Z,41.90
2018-04-19T13:04:07.953Z,41.60
2018-04-19T13:06:36.857Z,43.30
2018-04-19T13:09:05.641Z,42.90
2018-04-19T13:11:34.477Z,42.10
2018-04-19T13:14:03.317Z,42.60
2018-04-19T13:16:32.171Z,42.60
2018-04-19T13:19:01.012Z,42.90
2018-04-19T13:21:30.631Z,40.90
2018-04-19T13:24:00.403Z,40.90
2018-04-19T13:26:30.748Z,41.90
2018-04-19T13:29:00.341Z,41.10
2018-04-19T13:31:29.195Z,41.00
2018-04-19T13:33:58.060Z,41.70
2018-04-19T13:36:26.994Z,41.30
2018-04-19T13:38:55.849Z,40.70
2018-04-19T13:41:25.776Z,41.00
2018-04-19T13:43:54.850Z,40.90
2018-04-19T13:46:24.694Z,40.60
2018-04-19T13:48:53.632Z,40.50
2018-04-19T13:51:23.222Z,41.20
2018-04-19T13:53:52.366Z,39.50
2018-04-19T13:56:22.621Z,40.70
2018-04-19T13:58:51.454Z,40.60
2018-04-19T14:01:20.295Z,39.60
2018-04-19T14:03:49.151Z,40.00
2018-04-19T14:06:17.972Z,40.40
2018-04-19T14:08:46.817Z,38.80
2018-04-19T14:11:15.984Z,37.80
2018-04-19T14:13:44.835Z,37.90
2018-04-19T14:16:13.661Z,38.50
2018-04-19T14:18:42.509Z,38.40
2018-04-19T14:21:11.348Z,39.20
2018-04-19T14:23:40.202Z,37.30
2018-04-19T14:26:09.034Z,38.40
2018-04-19T14:28:37.889Z,38.50
2018-04-19T14:31:06.756Z,37.60
2018-04-19T14:33:35.576Z,37.00
2018-04-19T14:36:05.186Z,37.90
2018-04-19T14:38:34.035Z,37.80
2018-04-19T14:41:03.741Z,36.00
2018-04-19T14:43:33.395Z,37.30
2018-04-19T14:46:02.966Z,37.30
2018-04-19T14:48:31.835Z,37.20
2018-04-19T14:51:00.676Z,37.00
2018-04-19T14:53:29.508Z,37.60
2018-04-19T14:55:58.372Z,37.30
2018-04-19T14:58:28.315Z,37.30
2018-04-19T15:00:57.129Z,37.00
2018-04-19T15:03:26.769Z,38.80
2018-04-19T15:05:56.333Z,38.70
2018-04-19T15:08:25.170Z,38.60
2018-04-19T15:10:54.521Z,39.30
2018-04-19T15:13:23.354Z,39.00
2018-04-19T15:15:52.197Z,39.70
2018-04-19T15:18:21.148Z,39.20
2018-04-19T15:20:50.033Z,39.70
2018-04-19T15:23:18.855Z,39.20
2018-04-19T15:25:47.739Z,38.50
2018-04-19T15:28:17.292Z,39.40
2018-04-19T15:30:46.909Z,38.80
2018-04-19T15:33:16.534Z,39.30
2018-04-19T15:35:45.368Z,39.30
2018-04-19T15:38:14.241Z,39.70
2018-04-19T15:40:43.075Z,39.30
2018-04-19T15:43:11.904Z,40.00
2018-04-19T15:45:40.759Z,39.80
2018-04-19T15:48:09.586Z,40.20
2018-04-19T15:50:38.432Z,39.30
2018-04-19T15:53:08.039Z,40.00
2018-04-19T15:55:36.962Z,40.00
2018-04-19T15:58:05.802Z,40.90
2018-04-19T16:00:36.195Z,41.00
2018-04-19T16:03:05.069Z,40.90
2018-04-19T16:05:33.941Z,41.10
2018-04-19T16:08:02.773Z,40.90
2018-04-19T16:10:31.629Z,41.10
2018-04-19T16:13:00.481Z,41.20
2018-04-19T16:15:29.365Z,40.80
2018-04-19T16:17:58.161Z,41.60
2018-04-19T16:20:27.824Z,42.30
2018-04-19T16:22:56.675Z,42.30
2018-04-19T16:25:26.485Z,41.80
2018-04-19T16:27:56.525Z,42.50
2018-04-19T16:30:25.353Z,42.40
2018-04-19T16:32:54.196Z,42.00
2018-04-19T16:35:23.031Z,42.30
2018-04-19T16:37:51.901Z,42.60
2018-04-19T16:40:20.742Z,42.60
2018-04-19T16:42:49.585Z,42.70
2018-04-19T16:45:18.425Z,42.80
2018-04-19T16:47:47.288Z,42.80
2018-04-19T16:50:16.168Z,42.50
2018-04-19T16:52:44.980Z,42.60
2018-04-19T16:55:14.591Z,42.60
2018-04-19T16:57:44.188Z,42.60
2018-04-19T17:00:13.791Z,43.10
2018-04-19T17:02:43.425Z,42.60
2018-04-19T17:05:12.276Z,42.50
2018-04-19T17:07:41.128Z,42.80
2018-04-19T17:10:09.957Z,43.00
2018-04-19T17:12:38.849Z,43.00
2018-04-19T17:15:08.509Z,43.80
2018-04-19T17:17:37.385Z,43.70
2018-04-19T17:20:06.229Z,44.10
2018-04-19T17:22:35.455Z,44.10
2018-04-19T17:25:05.062Z,44.90
2018-04-19T17:27:34.125Z,44.80
2018-04-19T17:30:02.984Z,45.10
2018-04-19T17:32:31.836Z,44.90
2018-04-19T17:35:01.463Z,46.10
2018-04-19T17:37:30.873Z,45.50
2018-04-19T17:39:59.713Z,45.60
2018-04-19T17:42:28.558Z,45.80
2018-04-19T17:44:57.438Z,46.00
2018-04-19T17:47:26.281Z,46.90
2018-04-19T17:49:55.122Z,46.70
2018-04-19T17:52:23.951Z,46.50
2018-04-19T17:54:52.807Z,46.80
2018-04-19T17:57:21.648Z,46.80
2018-04-19T17:59:50.494Z,47.10
2018-04-19T18:02:19.343Z,47.20
2018-04-19T18:04:48.335Z,47.30
2018-04-19T18:07:17.925Z,48.30
2018-04-19T18:09:46.769Z,48.20
2018-04-19T18:12:15.597Z,48.40
2018-04-19T18:14:44.461Z,48.80
2018-04-19T18:17:13.311Z,48.80
2018-04-19T18:19:43.091Z,49.10
2018-04-19T18:22:11.933Z,49.70
2018-04-19T18:24:40.774Z,49.50
2018-04-19T18:27:10.385Z,50.10
2018-04-19T18:29:41.332Z,50.40
2018-04-19T18:32:10.958Z,51.10
2018-04-19T18:34:40.905Z,51.00
2018-04-19T18:37:11.251Z,51.00
2018-04-19T18:39:40.605Z,50.90
2018-04-19T18:42:09.449Z,51.50
2018-04-19T18:44:38.331Z,51.50
2018-04-19T18:47:07.198Z,51.90
2018-04-19T18:49:36.793Z,52.40
2018-04-19T18:52:06.403Z,52.30
2018-04-19T18:54:35.237Z,52.60
2018-04-19T18:57:04.094Z,52.80
2018-04-19T18:59:33.726Z,53.30
2018-04-19T19:02:02.577Z,53.30
2018-04-19T19:04:31.430Z,53.40
2018-04-19T19:07:00.253Z,53.80
2018-04-19T19:09:29.916Z,53.80
2018-04-19T19:11:58.758Z,53.80
2018-04-19T19:14:27.588Z,54.30
2018-04-19T19:16:56.443Z,54.50
2018-04-19T19:19:38.002Z,55.80
2018-04-19T19:22:06.845Z,55.80
2018-04-19T19:24:36.451Z,56.70
2018-04-19T19:27:05.293Z,56.70
2018-04-19T19:29:34.150Z,57.60
2018-04-19T19:32:03.003Z,57.60
2018-04-19T19:34:31.864Z,57.70
2018-04-19T19:37:01.254Z,57.40
2018-04-19T19:39:30.114Z,57.60
2018-04-19T19:41:59.739Z,57.90
2018-04-19T19:44:28.597Z,57.80
2018-04-19T19:46:58.224Z,57.80
2018-04-19T19:49:27.158Z,57.70
2018-04-19T19:51:55.992Z,57.80
2018-04-19T19:54:25.625Z,58.40
2018-04-19T19:56:57.160Z,58.60
2018-04-19T19:59:26.750Z,58.50
2018-04-19T20:01:55.848Z,58.40
2018-04-19T20:04:26.266Z,59.30
2018-04-19T20:06:55.906Z,59.00
2018-04-19T20:09:24.766Z,58.80
2018-04-19T20:11:55.341Z,58.80
2018-04-19T20:14:24.183Z,58.80
2018-04-19T20:16:53.805Z,58.50
2018-04-19T20:19:23.393Z,59.20
2018-04-19T20:21:53.742Z,59.50
2018-04-19T20:24:23.335Z,59.30
2018-04-19T20:26:52.987Z,59.30
2018-04-19T20:29:21.828Z,59.30
2018-04-19T20:31:51.007Z,59.20
2018-04-19T20:34:19.857Z,59.00
2018-04-19T20:36:49.510Z,59.00
2018-04-19T20:39:18.318Z,58.90
2018-04-19T20:41:47.174Z,59.20
2018-04-19T20:44:16.033Z,59.30
2018-04-19T20:46:45.719Z,59.20
2018-04-19T20:49:14.604Z,59.20
2018-04-19T20:51:43.436Z,59.40
2018-04-19T20:54:12.287Z,59.70
2018-04-19T20:56:41.138Z,59.90
2018-04-19T20:59:09.987Z,59.80
2018-04-19T21:01:39.602Z,60.00
2018-04-19T21:04:09.246Z,60.00
2018-04-19T21:06:38.078Z,59.90
2018-04-19T21:09:08.454Z,60.10
2018-04-19T21:11:37.292Z,60.10
2018-04-19T21:14:06.113Z,60.40
2018-04-19T21:16:34.970Z,60.40
2018-04-19T21:19:03.810Z,60.20
2018-04-19T21:21:32.653Z,60.30
2018-04-19T21:24:01.489Z,60.10
2018-04-19T21:26:30.334Z,60.50
2018-04-19T21:28:59.185Z,60.50
2018-04-19T21:31:28.059Z,60.10
2018-04-19T21:33:56.894Z,59.90
2018-04-19T21:36:26.514Z,60.80
2018-04-19T21:38:56.065Z,59.90
2018-04-19T21:41:25.685Z,60.70
2018-04-19T21:43:54.508Z,60.60
2018-04-19T21:46:23.365Z,60.80
2018-04-19T21:48:52.211Z,60.80
2018-04-19T21:51:21.095Z,61.00
2018-04-19T21:53:49.885Z,60.90
2018-04-19T21:56:20.236Z,60.60
2018-04-19T21:58:49.864Z,60.70
2018-04-19T22:01:19.475Z,60.40
2018-04-19T22:03:48.475Z,60.40
2018-04-19T22:06:17.304Z,59.90
2018-04-19T22:08:46.170Z,59.70
2018-04-19T22:11:14.988Z,59.90
2018-04-19T22:13:43.828Z,59.70
2018-04-19T22:16:12.671Z,59.90
2018-04-19T22:18:43.017Z,60.20
2018-04-19T22:21:12.629Z,60.40
2018-04-19T22:23:42.229Z,61.10
2018-04-19T22:26:11.821Z,61.00
2018-04-19T22:28:40.655Z,60.90
2018-04-19T22:31:10.155Z,61.40
2018-04-19T22:33:39.001Z,61.40
2018-04-19T22:36:08.680Z,62.20
2018-04-19T22:38:37.524Z,61.20
2018-04-19T22:41:06.424Z,61.30
2018-04-19T22:43:36.388Z,61.50
2018-04-19T22:46:05.248Z,61.80
2018-04-19T22:48:34.099Z,62.00
2018-04-19T22:51:03.712Z,61.70
2018-04-19T22:53:33.338Z,63.00
2018-04-19T22:56:02.188Z,62.00
2018-04-19T22:58:31.053Z,62.00
2018-04-19T23:00:59.889Z,62.10
2018-04-19T23:03:29.496Z,62.10
2018-04-19T23:05:59.104Z,63.20
2018-04-19T23:08:28.722Z,63.10
2018-04-19T23:10:57.582Z,63.10
2018-04-19T23:13:26.431Z,63.60
2018-04-19T23:15:55.278Z,62.90
2018-04-19T23:18:24.878Z,62.90
2018-04-19T23:20:54.498Z,63.30
2018-04-19T23:23:23.336Z,63.30
2018-04-19T23:25:52.191Z,64.00
2018-04-19T23:28:21.804Z,64.00
2018-04-19T23:30:50.688Z,64.00
2018-04-19T23:33:19.541Z,64.50
2018-04-19T23:35:49.153Z,65.60
2018-04-19T23:38:18.105Z,65.40
2018-04-19T23:40:47.710Z,64.80
2018-04-19T23:43:17.327Z,65.10
2018-04-19T23:45:46.182Z,65.10
2018-04-19T23:48:15.040Z,65.80
2018-04-19T23:50:43.882Z,66.20
2018-04-19T23:53:13.505Z,67.80
2018-04-19T23:55:43.135Z,68.10
2018-04-19T23:58:11.975Z,67.20
